sensor_id;sensor_type;location;lat;lon;timestamp;temperature;humidity
37806;DHT22;25082;50.870;0.022;2022-12-22T00:00:52;19.60;61.80
37806;DHT22;25082;50.870;0.022;2022-12-22T00:03:36;19.60;61.80
37806;DHT22;25082;50.870;0.022;2022-12-22T00:06:21;19.60;61.70
37806;DHT22;25082;50.870;0.022;2022-12-22T00:09:05;19.60;61.80
37806;DHT22;25082;50.870;0.022;2022-12-22T00:11:49;19.60;61.70
37806;DHT22;25082;50.870;0.022;2022-12-22T00:14:33;19.60;61.70
37806;DHT22;25082;50.870;0.022;2022-12-22T00:17:25;19.60;61.70
37806;DHT22;25082;50.870;0.022;2022-12-22T00:20:16;19.60;61.70
37806;DHT22;25082;50.870;0.022;2022-12-22T00:23:01;19.60;61.60
37806;DHT22;25082;50.870;0.022;2022-12-22T00:25:46;19.60;61.60
37806;DHT22;25082;50.870;0.022;2022-12-22T00:28:30;19.60;61.50
37806;DHT22;25082;50.870;0.022;2022-12-22T00:31:15;19.60;61.50
37806;DHT22;25082;50.870;0.022;2022-12-22T00:34:00;19.50;61.40
37806;DHT22;25082;50.870;0.022;2022-12-22T00:36:44;19.50;61.40
37806;DHT22;25082;50.870;0.022;2022-12-22T00:39:29;19.50;61.40
37806;DHT22;25082;50.870;0.022;2022-12-22T00:42:13;19.50;61.40
37806;DHT22;25082;50.870;0.022;2022-12-22T00:44:57;19.50;61.30
37806;DHT22;25082;50.870;0.022;2022-12-22T00:47:42;19.50;61.30
37806;DHT22;25082;50.870;0.022;2022-12-22T00:50:35;19.50;61.30
37806;DHT22;25082;50.870;0.022;2022-12-22T00:53:20;19.50;61.30
37806;DHT22;25082;50.870;0.022;2022-12-22T00:56:05;19.50;61.20
37806;DHT22;25082;50.870;0.022;2022-12-22T00:58:52;19.50;61.20
37806;DHT22;25082;50.870;0.022;2022-12-22T01:01:37;19.50;61.20
37806;DHT22;25082;50.870;0.022;2022-12-22T01:04:21;19.50;61.20
37806;DHT22;25082;50.870;0.022;2022-12-22T01:07:09;19.40;61.10
37806;DHT22;25082;50.870;0.022;2022-12-22T01:09:54;19.50;61.20
37806;DHT22;25082;50.870;0.022;2022-12-22T01:12:40;19.40;61.10
37806;DHT22;25082;50.870;0.022;2022-12-22T01:15:25;19.50;61.10
37806;DHT22;25082;50.870;0.022;2022-12-22T01:18:09;19.40;61.00
37806;DHT22;25082;50.870;0.022;2022-12-22T01:20:53;19.40;60.90
37806;DHT22;25082;50.870;0.022;2022-12-22T01:23:38;19.40;61.00
37806;DHT22;25082;50.870;0.022;2022-12-22T01:26:23;19.40;60.90
37806;DHT22;25082;50.870;0.022;2022-12-22T01:29:08;19.40;60.90
37806;DHT22;25082;50.870;0.022;2022-12-22T01:31:52;19.40;60.90
37806;DHT22;25082;50.870;0.022;2022-12-22T01:34:37;19.40;60.90
37806;DHT22;25082;50.870;0.022;2022-12-22T01:37:21;19.40;60.90
37806;DHT22;25082;50.870;0.022;2022-12-22T01:40:18;19.40;60.90
37806;DHT22;25082;50.870;0.022;2022-12-22T01:43:19;19.40;60.90
37806;DHT22;25082;50.870;0.022;2022-12-22T01:46:23;19.40;60.80
37806;DHT22;25082;50.870;0.022;2022-12-22T01:49:12;19.40;60.90
37806;DHT22;25082;50.870;0.022;2022-12-22T01:51:58;19.30;60.80
37806;DHT22;25082;50.870;0.022;2022-12-22T01:54:44;19.40;60.90
37806;DHT22;25082;50.870;0.022;2022-12-22T01:57:29;19.40;60.80
37806;DHT22;25082;50.870;0.022;2022-12-22T02:00:15;19.40;60.80
37806;DHT22;25082;50.870;0.022;2022-12-22T02:03:00;19.30;60.70
37806;DHT22;25082;50.870;0.022;2022-12-22T02:06:17;19.30;60.70
37806;DHT22;25082;50.870;0.022;2022-12-22T02:09:19;19.30;60.70
37806;DHT22;25082;50.870;0.022;2022-12-22T02:18:24;19.30;60.70
37806;DHT22;25082;50.870;0.022;2022-12-22T02:21:13;19.30;60.70
37806;DHT22;25082;50.870;0.022;2022-12-22T02:27:09;19.30;60.70
37806;DHT22;25082;50.870;0.022;2022-12-22T02:29:56;19.30;60.70
37806;DHT22;25082;50.870;0.022;2022-12-22T02:32:44;19.30;60.60
37806;DHT22;25082;50.870;0.022;2022-12-22T02:47:49;19.20;60.60
37806;DHT22;25082;50.870;0.022;2022-12-22T02:50:48;19.20;60.60
37806;DHT22;25082;50.870;0.022;2022-12-22T02:53:34;19.20;60.70
37806;DHT22;25082;50.870;0.022;2022-12-22T02:56:20;19.20;60.60
37806;DHT22;25082;50.870;0.022;2022-12-22T02:59:05;19.20;60.50
37806;DHT22;25082;50.870;0.022;2022-12-22T03:01:49;19.20;60.50
37806;DHT22;25082;50.870;0.022;2022-12-22T03:04:33;19.20;60.50
37806;DHT22;25082;50.870;0.022;2022-12-22T03:07:17;19.20;60.50
37806;DHT22;25082;50.870;0.022;2022-12-22T03:10:02;19.20;60.50
37806;DHT22;25082;50.870;0.022;2022-12-22T03:12:46;19.20;60.50
37806;DHT22;25082;50.870;0.022;2022-12-22T03:15:30;19.20;60.50
37806;DHT22;25082;50.870;0.022;2022-12-22T03:18:14;19.20;60.50
37806;DHT22;25082;50.870;0.022;2022-12-22T03:20:58;19.10;60.40
37806;DHT22;25082;50.870;0.022;2022-12-22T03:23:43;19.10;60.40
37806;DHT22;25082;50.870;0.022;2022-12-22T03:26:27;19.10;60.40
37806;DHT22;25082;50.870;0.022;2022-12-22T03:28:54;19.10;60.30
37806;DHT22;25082;50.870;0.022;2022-12-22T03:31:19;19.20;60.40
37806;DHT22;25082;50.870;0.022;2022-12-22T03:33:45;19.10;60.30
37806;DHT22;25082;50.870;0.022;2022-12-22T03:36:11;19.10;60.30
37806;DHT22;25082;50.870;0.022;2022-12-22T03:38:37;19.10;60.30
37806;DHT22;25082;50.870;0.022;2022-12-22T03:41:03;19.10;60.30
37806;DHT22;25082;50.870;0.022;2022-12-22T03:43:29;19.10;60.30
37806;DHT22;25082;50.870;0.022;2022-12-22T03:46:16;19.10;60.30
37806;DHT22;25082;50.870;0.022;2022-12-22T03:48:42;19.10;60.30
37806;DHT22;25082;50.870;0.022;2022-12-22T03:51:09;19.00;60.20
37806;DHT22;25082;50.870;0.022;2022-12-22T03:53:35;19.00;60.20
37806;DHT22;25082;50.870;0.022;2022-12-22T03:56:01;19.00;60.20
37806;DHT22;25082;50.870;0.022;2022-12-22T03:58:26;19.00;60.20
37806;DHT22;25082;50.870;0.022;2022-12-22T04:01:05;19.00;60.20
37806;DHT22;25082;50.870;0.022;2022-12-22T04:03:31;19.00;60.10
37806;DHT22;25082;50.870;0.022;2022-12-22T04:05:57;19.00;60.10
37806;DHT22;25082;50.870;0.022;2022-12-22T04:08:23;19.00;60.10
37806;DHT22;25082;50.870;0.022;2022-12-22T04:10:49;19.00;60.10
37806;DHT22;25082;50.870;0.022;2022-12-22T04:13:33;19.00;60.10
37806;DHT22;25082;50.870;0.022;2022-12-22T04:15:59;19.00;60.10
37806;DHT22;25082;50.870;0.022;2022-12-22T04:18:24;19.00;60.00
37806;DHT22;25082;50.870;0.022;2022-12-22T04:20:50;18.90;60.00
37806;DHT22;25082;50.870;0.022;2022-12-22T04:23:16;18.90;60.00
37806;DHT22;25082;50.870;0.022;2022-12-22T04:25:41;18.90;60.00
37806;DHT22;25082;50.870;0.022;2022-12-22T04:28:07;18.90;60.00
37806;DHT22;25082;50.870;0.022;2022-12-22T04:30:33;19.00;60.10
37806;DHT22;25082;50.870;0.022;2022-12-22T04:32:58;19.00;60.10
37806;DHT22;25082;50.870;0.022;2022-12-22T04:35:24;18.90;60.00
37806;DHT22;25082;50.870;0.022;2022-12-22T04:37:50;19.00;60.00
37806;DHT22;25082;50.870;0.022;2022-12-22T04:40:16;18.90;60.00
37806;DHT22;25082;50.870;0.022;2022-12-22T04:42:41;18.90;59.90
37806;DHT22;25082;50.870;0.022;2022-12-22T04:45:07;18.90;60.00
37806;DHT22;25082;50.870;0.022;2022-12-22T04:47:33;18.90;59.90
37806;DHT22;25082;50.870;0.022;2022-12-22T04:49:59;18.90;60.00
37806;DHT22;25082;50.870;0.022;2022-12-22T04:52:25;18.90;59.90
37806;DHT22;25082;50.870;0.022;2022-12-22T04:54:51;18.90;59.90
37806;DHT22;25082;50.870;0.022;2022-12-22T04:57:17;18.90;59.90
37806;DHT22;25082;50.870;0.022;2022-12-22T04:59:42;18.90;59.90
37806;DHT22;25082;50.870;0.022;2022-12-22T05:02:08;18.90;59.90
37806;DHT22;25082;50.870;0.022;2022-12-22T05:04:34;18.90;59.90
37806;DHT22;25082;50.870;0.022;2022-12-22T05:07:00;18.80;59.80
37806;DHT22;25082;50.870;0.022;2022-12-22T05:09:26;18.80;59.90
37806;DHT22;25082;50.870;0.022;2022-12-22T05:11:51;18.80;59.80
37806;DHT22;25082;50.870;0.022;2022-12-22T05:14:17;18.80;59.80
37806;DHT22;25082;50.870;0.022;2022-12-22T05:16:43;18.80;59.80
37806;DHT22;25082;50.870;0.022;2022-12-22T05:19:09;18.80;59.80
37806;DHT22;25082;50.870;0.022;2022-12-22T05:21:34;18.80;59.70
37806;DHT22;25082;50.870;0.022;2022-12-22T05:24:00;18.80;59.70
37806;DHT22;25082;50.870;0.022;2022-12-22T05:26:26;18.80;59.80
37806;DHT22;25082;50.870;0.022;2022-12-22T05:28:52;18.80;59.80
37806;DHT22;25082;50.870;0.022;2022-12-22T05:31:21;18.80;59.80
37806;DHT22;25082;50.870;0.022;2022-12-22T05:33:48;18.80;59.70
37806;DHT22;25082;50.870;0.022;2022-12-22T05:36:14;18.70;59.70
37806;DHT22;25082;50.870;0.022;2022-12-22T05:38:40;18.70;59.60
37806;DHT22;25082;50.870;0.022;2022-12-22T05:41:06;18.70;59.60
37806;DHT22;25082;50.870;0.022;2022-12-22T05:43:33;18.70;59.60
37806;DHT22;25082;50.870;0.022;2022-12-22T05:46:08;18.70;59.70
37806;DHT22;25082;50.870;0.022;2022-12-22T05:48:35;18.70;59.60
37806;DHT22;25082;50.870;0.022;2022-12-22T05:51:01;18.70;59.60
37806;DHT22;25082;50.870;0.022;2022-12-22T05:53:26;18.70;59.60
37806;DHT22;25082;50.870;0.022;2022-12-22T05:55:52;18.70;59.60
37806;DHT22;25082;50.870;0.022;2022-12-22T05:58:18;18.70;59.60
37806;DHT22;25082;50.870;0.022;2022-12-22T06:00:44;18.70;59.70
37806;DHT22;25082;50.870;0.022;2022-12-22T06:03:10;18.70;59.60
37806;DHT22;25082;50.870;0.022;2022-12-22T06:05:35;18.70;59.60
37806;DHT22;25082;50.870;0.022;2022-12-22T06:08:01;18.70;59.60
37806;DHT22;25082;50.870;0.022;2022-12-22T06:10:27;18.70;59.60
37806;DHT22;25082;50.870;0.022;2022-12-22T06:12:52;18.70;59.60
37806;DHT22;25082;50.870;0.022;2022-12-22T06:15:18;18.70;59.60
37806;DHT22;25082;50.870;0.022;2022-12-22T06:17:44;18.70;59.60
37806;DHT22;25082;50.870;0.022;2022-12-22T06:20:10;18.60;59.50
37806;DHT22;25082;50.870;0.022;2022-12-22T06:22:36;18.60;59.50
37806;DHT22;25082;50.870;0.022;2022-12-22T06:25:02;18.70;59.60
37806;DHT22;25082;50.870;0.022;2022-12-22T06:27:28;18.70;59.60
37806;DHT22;25082;50.870;0.022;2022-12-22T06:29:53;18.60;59.50
37806;DHT22;25082;50.870;0.022;2022-12-22T06:32:19;18.60;59.50
37806;DHT22;25082;50.870;0.022;2022-12-22T06:34:45;18.60;59.50
37806;DHT22;25082;50.870;0.022;2022-12-22T06:37:10;18.60;59.50
37806;DHT22;25082;50.870;0.022;2022-12-22T06:39:36;18.60;59.50
37806;DHT22;25082;50.870;0.022;2022-12-22T06:42:02;18.60;59.50
37806;DHT22;25082;50.870;0.022;2022-12-22T06:44:46;18.60;59.50
37806;DHT22;25082;50.870;0.022;2022-12-22T06:47:15;18.60;59.50
37806;DHT22;25082;50.870;0.022;2022-12-22T06:49:41;18.60;59.50
37806;DHT22;25082;50.870;0.022;2022-12-22T06:52:07;18.60;59.50
37806;DHT22;25082;50.870;0.022;2022-12-22T06:54:33;18.60;59.50
37806;DHT22;25082;50.870;0.022;2022-12-22T06:56:59;18.60;59.50
37806;DHT22;25082;50.870;0.022;2022-12-22T06:59:25;18.60;59.50
37806;DHT22;25082;50.870;0.022;2022-12-22T07:01:50;18.60;59.50
37806;DHT22;25082;50.870;0.022;2022-12-22T07:04:16;18.60;59.50
37806;DHT22;25082;50.870;0.022;2022-12-22T07:06:46;18.60;59.50
37806;DHT22;25082;50.870;0.022;2022-12-22T07:09:11;18.50;59.50
37806;DHT22;25082;50.870;0.022;2022-12-22T07:11:37;18.50;59.50
37806;DHT22;25082;50.870;0.022;2022-12-22T07:14:03;18.50;59.50
37806;DHT22;25082;50.870;0.022;2022-12-22T07:16:29;18.50;59.50
37806;DHT22;25082;50.870;0.022;2022-12-22T07:18:54;18.50;59.50
37806;DHT22;25082;50.870;0.022;2022-12-22T07:21:20;18.50;59.50
37806;DHT22;25082;50.870;0.022;2022-12-22T07:23:46;18.50;59.50
37806;DHT22;25082;50.870;0.022;2022-12-22T07:26:12;18.50;59.50
37806;DHT22;25082;50.870;0.022;2022-12-22T07:28:39;18.50;59.50
37806;DHT22;25082;50.870;0.022;2022-12-22T07:31:06;18.50;59.60
37806;DHT22;25082;50.870;0.022;2022-12-22T07:33:32;18.50;59.50
37806;DHT22;25082;50.870;0.022;2022-12-22T07:36:11;18.50;59.50
37806;DHT22;25082;50.870;0.022;2022-12-22T07:38:39;18.50;59.50
37806;DHT22;25082;50.870;0.022;2022-12-22T07:41:07;18.50;59.50
37806;DHT22;25082;50.870;0.022;2022-12-22T07:43:56;18.50;59.50
37806;DHT22;25082;50.870;0.022;2022-12-22T07:46:24;18.50;59.50
37806;DHT22;25082;50.870;0.022;2022-12-22T07:48:50;18.50;59.60
37806;DHT22;25082;50.870;0.022;2022-12-22T07:51:36;18.40;59.60
37806;DHT22;25082;50.870;0.022;2022-12-22T07:54:09;18.50;59.60
37806;DHT22;25082;50.870;0.022;2022-12-22T07:56:36;18.50;59.60
37806;DHT22;25082;50.870;0.022;2022-12-22T07:59:02;18.40;59.50
37806;DHT22;25082;50.870;0.022;2022-12-22T08:01:28;18.40;59.50
37806;DHT22;25082;50.870;0.022;2022-12-22T08:03:53;18.40;59.50
37806;DHT22;25082;50.870;0.022;2022-12-22T08:06:19;18.40;59.50
37806;DHT22;25082;50.870;0.022;2022-12-22T08:08:45;18.50;59.70
37806;DHT22;25082;50.870;0.022;2022-12-22T08:11:11;18.50;59.70
37806;DHT22;25082;50.870;0.022;2022-12-22T08:13:37;18.50;59.60
37806;DHT22;25082;50.870;0.022;2022-12-22T08:16:09;18.50;59.60
37806;DHT22;25082;50.870;0.022;2022-12-22T08:18:35;18.60;60.00
37806;DHT22;25082;50.870;0.022;2022-12-22T08:21:02;18.60;59.60
37806;DHT22;25082;50.870;0.022;2022-12-22T08:23:28;18.60;59.50
37806;DHT22;25082;50.870;0.022;2022-12-22T08:28:37;18.70;59.50
37806;DHT22;25082;50.870;0.022;2022-12-22T08:31:03;18.70;59.40
37806;DHT22;25082;50.870;0.022;2022-12-22T08:33:29;18.70;59.30
37806;DHT22;25082;50.870;0.022;2022-12-22T08:35:56;18.70;59.30
37806;DHT22;25082;50.870;0.022;2022-12-22T08:38:22;18.80;59.30
37806;DHT22;25082;50.870;0.022;2022-12-22T08:40:48;18.80;59.30
37806;DHT22;25082;50.870;0.022;2022-12-22T08:43:15;18.80;59.30
37806;DHT22;25082;50.870;0.022;2022-12-22T08:45:41;18.80;59.40
37806;DHT22;25082;50.870;0.022;2022-12-22T08:48:08;18.80;59.40
37806;DHT22;25082;50.870;0.022;2022-12-22T08:50:34;18.80;59.40
37806;DHT22;25082;50.870;0.022;2022-12-22T08:53:04;18.90;59.50
37806;DHT22;25082;50.870;0.022;2022-12-22T08:55:29;18.90;59.50
37806;DHT22;25082;50.870;0.022;2022-12-22T08:57:55;18.90;59.50
37806;DHT22;25082;50.870;0.022;2022-12-22T09:00:21;18.90;59.50
37806;DHT22;25082;50.870;0.022;2022-12-22T09:02:47;18.90;59.60
37806;DHT22;25082;50.870;0.022;2022-12-22T09:05:13;18.90;59.60
37806;DHT22;25082;50.870;0.022;2022-12-22T09:07:38;18.90;59.60
37806;DHT22;25082;50.870;0.022;2022-12-22T09:10:07;19.00;59.60
37806;DHT22;25082;50.870;0.022;2022-12-22T09:12:33;18.90;59.60
37806;DHT22;25082;50.870;0.022;2022-12-22T09:14:59;18.90;59.70
37806;DHT22;25082;50.870;0.022;2022-12-22T09:17:25;19.00;59.70
37806;DHT22;25082;50.870;0.022;2022-12-22T09:19:51;19.00;59.80
37806;DHT22;25082;50.870;0.022;2022-12-22T09:22:16;19.00;59.80
37806;DHT22;25082;50.870;0.022;2022-12-22T09:24:42;19.00;59.80
37806;DHT22;25082;50.870;0.022;2022-12-22T09:27:08;19.00;59.90
37806;DHT22;25082;50.870;0.022;2022-12-22T09:29:35;19.00;59.90
37806;DHT22;25082;50.870;0.022;2022-12-22T09:32:02;19.00;59.90
37806;DHT22;25082;50.870;0.022;2022-12-22T09:34:28;19.00;59.90
37806;DHT22;25082;50.870;0.022;2022-12-22T09:36:54;19.00;60.00
37806;DHT22;25082;50.870;0.022;2022-12-22T09:39:19;19.10;60.00
37806;DHT22;25082;50.870;0.022;2022-12-22T09:46:41;19.10;60.10
37806;DHT22;25082;50.870;0.022;2022-12-22T09:49:09;19.10;60.20
37806;DHT22;25082;50.870;0.022;2022-12-22T09:51:43;19.10;60.20
37806;DHT22;25082;50.870;0.022;2022-12-22T09:54:11;19.10;60.30
37806;DHT22;25082;50.870;0.022;2022-12-22T09:56:38;19.10;60.30
37806;DHT22;25082;50.870;0.022;2022-12-22T09:59:14;19.10;60.30
37806;DHT22;25082;50.870;0.022;2022-12-22T10:07:32;19.20;60.40
37806;DHT22;25082;50.870;0.022;2022-12-22T10:10:25;19.20;60.50
37806;DHT22;25082;50.870;0.022;2022-12-22T10:12:58;19.20;60.50
37806;DHT22;25082;50.870;0.022;2022-12-22T10:15:25;19.20;60.60
37806;DHT22;25082;50.870;0.022;2022-12-22T10:17:53;19.20;60.70
37806;DHT22;25082;50.870;0.022;2022-12-22T10:20:32;19.20;60.60
37806;DHT22;25082;50.870;0.022;2022-12-22T10:23:00;19.20;60.70
37806;DHT22;25082;50.870;0.022;2022-12-22T10:28:02;19.20;60.70
37806;DHT22;25082;50.870;0.022;2022-12-22T10:30:37;19.20;60.70
37806;DHT22;25082;50.870;0.022;2022-12-22T10:33:10;19.20;60.90
37806;DHT22;25082;50.870;0.022;2022-12-22T10:38:51;19.20;61.20
37806;DHT22;25082;50.870;0.022;2022-12-22T10:41:20;19.20;61.30
37806;DHT22;25082;50.870;0.022;2022-12-22T10:43:52;19.20;61.30
37806;DHT22;25082;50.870;0.022;2022-12-22T10:46:41;19.30;61.30
37806;DHT22;25082;50.870;0.022;2022-12-22T10:49:29;19.30;61.70
37806;DHT22;25082;50.870;0.022;2022-12-22T10:52:25;19.30;61.60
37806;DHT22;25082;50.870;0.022;2022-12-22T10:54:52;19.30;61.50
37806;DHT22;25082;50.870;0.022;2022-12-22T10:57:37;19.30;61.50
37806;DHT22;25082;50.870;0.022;2022-12-22T11:00:33;19.30;61.40
37806;DHT22;25082;50.870;0.022;2022-12-22T11:03:01;19.40;61.50
37806;DHT22;25082;50.870;0.022;2022-12-22T11:05:27;19.30;61.60
37806;DHT22;25082;50.870;0.022;2022-12-22T11:07:54;19.30;61.60
37806;DHT22;25082;50.870;0.022;2022-12-22T11:10:32;19.30;61.70
37806;DHT22;25082;50.870;0.022;2022-12-22T11:13:03;19.40;61.70
37806;DHT22;25082;50.870;0.022;2022-12-22T11:21:01;19.40;61.90
37806;DHT22;25082;50.870;0.022;2022-12-22T11:23:52;19.40;61.70
37806;DHT22;25082;50.870;0.022;2022-12-22T11:26:45;19.40;61.80
37806;DHT22;25082;50.870;0.022;2022-12-22T11:45:40;19.30;62.00
37806;DHT22;25082;50.870;0.022;2022-12-22T11:48:32;19.30;62.30
37806;DHT22;25082;50.870;0.022;2022-12-22T12:02:28;19.40;62.50
37806;DHT22;25082;50.870;0.022;2022-12-22T12:13:00;19.40;63.10
37806;DHT22;25082;50.870;0.022;2022-12-22T12:15:32;19.40;62.90
37806;DHT22;25082;50.870;0.022;2022-12-22T12:23:44;19.40;63.30
37806;DHT22;25082;50.870;0.022;2022-12-22T12:26:21;19.40;63.10
37806;DHT22;25082;50.870;0.022;2022-12-22T12:31:28;19.50;63.40
37806;DHT22;25082;50.870;0.022;2022-12-22T12:33:55;19.50;63.50
37806;DHT22;25082;50.870;0.022;2022-12-22T12:44:15;19.50;63.40
37806;DHT22;25082;50.870;0.022;2022-12-22T12:52:05;19.50;64.30
37806;DHT22;25082;50.870;0.022;2022-12-22T13:08:13;19.50;64.10
37806;DHT22;25082;50.870;0.022;2022-12-22T13:10:45;19.50;64.40
37806;DHT22;25082;50.870;0.022;2022-12-22T13:23:38;19.60;65.40
37806;DHT22;25082;50.870;0.022;2022-12-22T13:26:13;19.60;65.60
37806;DHT22;25082;50.870;0.022;2022-12-22T13:28:41;19.60;66.00
37806;DHT22;25082;50.870;0.022;2022-12-22T13:31:20;19.60;65.70
37806;DHT22;25082;50.870;0.022;2022-12-22T13:34:00;19.60;66.10
37806;DHT22;25082;50.870;0.022;2022-12-22T13:36:28;19.60;66.10
37806;DHT22;25082;50.870;0.022;2022-12-22T13:39:14;19.60;66.70
37806;DHT22;25082;50.870;0.022;2022-12-22T13:41:43;19.70;66.70
37806;DHT22;25082;50.870;0.022;2022-12-22T13:44:17;19.70;67.00
37806;DHT22;25082;50.870;0.022;2022-12-22T13:46:43;19.70;67.50
37806;DHT22;25082;50.870;0.022;2022-12-22T13:49:15;19.70;67.80
37806;DHT22;25082;50.870;0.022;2022-12-22T13:51:41;19.70;67.70
37806;DHT22;25082;50.870;0.022;2022-12-22T13:56:53;19.70;67.70
37806;DHT22;25082;50.870;0.022;2022-12-22T13:59:33;19.70;67.70
37806;DHT22;25082;50.870;0.022;2022-12-22T14:02:02;19.70;67.60
37806;DHT22;25082;50.870;0.022;2022-12-22T14:04:28;19.80;67.70
37806;DHT22;25082;50.870;0.022;2022-12-22T14:06:54;19.70;67.70
37806;DHT22;25082;50.870;0.022;2022-12-22T14:09:24;19.80;67.60
37806;DHT22;25082;50.870;0.022;2022-12-22T14:11:55;19.80;67.30
37806;DHT22;25082;50.870;0.022;2022-12-22T14:14:28;19.80;67.30
37806;DHT22;25082;50.870;0.022;2022-12-22T14:16:58;19.80;66.90
37806;DHT22;25082;50.870;0.022;2022-12-22T14:19:26;19.80;67.20
37806;DHT22;25082;50.870;0.022;2022-12-22T14:24:35;19.70;66.80
37806;DHT22;25082;50.870;0.022;2022-12-22T14:27:21;19.80;66.50
37806;DHT22;25082;50.870;0.022;2022-12-22T14:29:49;19.70;66.30
37806;DHT22;25082;50.870;0.022;2022-12-22T14:32:38;19.70;66.40
37806;DHT22;25082;50.870;0.022;2022-12-22T14:38:06;19.80;66.40
37806;DHT22;25082;50.870;0.022;2022-12-22T14:40:40;19.80;66.60
37806;DHT22;25082;50.870;0.022;2022-12-22T14:45:48;19.80;66.50
37806;DHT22;25082;50.870;0.022;2022-12-22T14:48:26;19.80;66.60
37806;DHT22;25082;50.870;0.022;2022-12-22T14:50:53;19.80;66.60
37806;DHT22;25082;50.870;0.022;2022-12-22T14:53:25;19.80;66.60
37806;DHT22;25082;50.870;0.022;2022-12-22T14:55:52;19.80;66.50
37806;DHT22;25082;50.870;0.022;2022-12-22T14:58:26;19.80;66.50
37806;DHT22;25082;50.870;0.022;2022-12-22T15:03:38;19.80;66.20
37806;DHT22;25082;50.870;0.022;2022-12-22T15:09:04;19.80;65.90
37806;DHT22;25082;50.870;0.022;2022-12-22T15:11:31;19.80;66.30
37806;DHT22;25082;50.870;0.022;2022-12-22T15:13:58;19.80;66.60
37806;DHT22;25082;50.870;0.022;2022-12-22T15:16:26;19.80;66.00
37806;DHT22;25082;50.870;0.022;2022-12-22T15:18:52;19.80;66.40
37806;DHT22;25082;50.870;0.022;2022-12-22T15:21:18;19.80;65.70
37806;DHT22;25082;50.870;0.022;2022-12-22T15:23:45;19.80;66.20
37806;DHT22;25082;50.870;0.022;2022-12-22T15:26:11;19.80;66.20
37806;DHT22;25082;50.870;0.022;2022-12-22T15:28:37;19.90;66.50
37806;DHT22;25082;50.870;0.022;2022-12-22T15:31:08;19.80;66.40
37806;DHT22;25082;50.870;0.022;2022-12-22T15:33:36;19.80;66.30
37806;DHT22;25082;50.870;0.022;2022-12-22T15:36:02;19.90;66.20
37806;DHT22;25082;50.870;0.022;2022-12-22T15:38:28;19.90;66.20
37806;DHT22;25082;50.870;0.022;2022-12-22T15:40:53;19.90;66.10
37806;DHT22;25082;50.870;0.022;2022-12-22T15:43:19;19.90;66.20
37806;DHT22;25082;50.870;0.022;2022-12-22T15:45:45;19.90;66.00
37806;DHT22;25082;50.870;0.022;2022-12-22T15:48:22;19.90;65.90
37806;DHT22;25082;50.870;0.022;2022-12-22T15:50:50;19.90;65.80
37806;DHT22;25082;50.870;0.022;2022-12-22T15:53:17;19.90;65.70
37806;DHT22;25082;50.870;0.022;2022-12-22T15:55:46;19.90;65.90
37806;DHT22;25082;50.870;0.022;2022-12-22T15:58:15;19.90;65.70
37806;DHT22;25082;50.870;0.022;2022-12-22T16:00:43;19.90;65.80
37806;DHT22;25082;50.870;0.022;2022-12-22T16:03:10;19.90;66.50
37806;DHT22;25082;50.870;0.022;2022-12-22T16:05:37;19.90;65.90
37806;DHT22;25082;50.870;0.022;2022-12-22T16:08:08;19.90;65.80
37806;DHT22;25082;50.870;0.022;2022-12-22T16:10:34;19.90;65.90
37806;DHT22;25082;50.870;0.022;2022-12-22T16:13:01;19.90;65.60
37806;DHT22;25082;50.870;0.022;2022-12-22T16:15:32;19.90;65.80
37806;DHT22;25082;50.870;0.022;2022-12-22T16:18:00;19.90;66.00
37806;DHT22;25082;50.870;0.022;2022-12-22T16:20:28;19.90;66.00
37806;DHT22;25082;50.870;0.022;2022-12-22T16:22:55;19.90;66.00
37806;DHT22;25082;50.870;0.022;2022-12-22T16:25:26;19.90;66.00
37806;DHT22;25082;50.870;0.022;2022-12-22T16:27:55;19.90;66.10
37806;DHT22;25082;50.870;0.022;2022-12-22T16:30:25;19.90;66.00
37806;DHT22;25082;50.870;0.022;2022-12-22T16:32:52;19.90;66.60
37806;DHT22;25082;50.870;0.022;2022-12-22T16:35:20;19.90;65.80
37806;DHT22;25082;50.870;0.022;2022-12-22T16:37:47;20.00;66.00
37806;DHT22;25082;50.870;0.022;2022-12-22T16:40:17;20.00;65.90
37806;DHT22;25082;50.870;0.022;2022-12-22T16:43:04;19.90;65.70
37806;DHT22;25082;50.870;0.022;2022-12-22T16:45:34;20.00;65.60
37806;DHT22;25082;50.870;0.022;2022-12-22T16:48:04;19.90;65.40
37806;DHT22;25082;50.870;0.022;2022-12-22T16:50:31;19.90;65.40
37806;DHT22;25082;50.870;0.022;2022-12-22T16:53:03;19.90;65.50
37806;DHT22;25082;50.870;0.022;2022-12-22T16:55:30;19.90;65.30
37806;DHT22;25082;50.870;0.022;2022-12-22T16:57:56;20.00;65.40
37806;DHT22;25082;50.870;0.022;2022-12-22T17:00:27;20.00;65.50
37806;DHT22;25082;50.870;0.022;2022-12-22T17:02:56;20.00;65.50
37806;DHT22;25082;50.870;0.022;2022-12-22T17:05:37;19.90;65.20
37806;DHT22;25082;50.870;0.022;2022-12-22T17:08:06;20.00;65.40
37806;DHT22;25082;50.870;0.022;2022-12-22T17:10:33;19.90;65.40
37806;DHT22;25082;50.870;0.022;2022-12-22T17:12:59;19.90;65.50
37806;DHT22;25082;50.870;0.022;2022-12-22T17:15:25;20.00;65.50
37806;DHT22;25082;50.870;0.022;2022-12-22T17:17:52;19.90;65.60
37806;DHT22;25082;50.870;0.022;2022-12-22T17:20:20;19.90;65.50
37806;DHT22;25082;50.870;0.022;2022-12-22T17:22:51;20.00;65.50
37806;DHT22;25082;50.870;0.022;2022-12-22T17:25:21;19.90;65.60
37806;DHT22;25082;50.870;0.022;2022-12-22T17:27:48;20.00;65.60
37806;DHT22;25082;50.870;0.022;2022-12-22T17:30:19;19.90;65.60
37806;DHT22;25082;50.870;0.022;2022-12-22T17:32:46;20.00;65.60
37806;DHT22;25082;50.870;0.022;2022-12-22T17:35:17;20.00;65.60
37806;DHT22;25082;50.870;0.022;2022-12-22T17:37:45;20.00;65.50
37806;DHT22;25082;50.870;0.022;2022-12-22T17:42:42;20.00;65.30
37806;DHT22;25082;50.870;0.022;2022-12-22T17:45:15;20.00;65.10
37806;DHT22;25082;50.870;0.022;2022-12-22T17:47:42;20.00;65.10
37806;DHT22;25082;50.870;0.022;2022-12-22T17:50:13;20.00;65.40
37806;DHT22;25082;50.870;0.022;2022-12-22T17:52:39;20.00;65.40
37806;DHT22;25082;50.870;0.022;2022-12-22T17:55:26;20.00;65.40
37806;DHT22;25082;50.870;0.022;2022-12-22T17:57:53;20.00;65.30
37806;DHT22;25082;50.870;0.022;2022-12-22T18:00:27;20.00;65.40
37806;DHT22;25082;50.870;0.022;2022-12-22T18:02:54;20.00;65.40
37806;DHT22;25082;50.870;0.022;2022-12-22T18:05:22;20.00;65.40
37806;DHT22;25082;50.870;0.022;2022-12-22T18:07:49;20.00;65.40
37806;DHT22;25082;50.870;0.022;2022-12-22T18:13:19;20.00;65.40
37806;DHT22;25082;50.870;0.022;2022-12-22T18:15:45;20.00;65.40
37806;DHT22;25082;50.870;0.022;2022-12-22T18:18:15;20.00;65.40
37806;DHT22;25082;50.870;0.022;2022-12-22T18:20:42;20.00;65.30
37806;DHT22;25082;50.870;0.022;2022-12-22T18:23:32;20.00;65.40
37806;DHT22;25082;50.870;0.022;2022-12-22T18:25:58;20.00;65.30
37806;DHT22;25082;50.870;0.022;2022-12-22T18:28:24;20.00;65.00
37806;DHT22;25082;50.870;0.022;2022-12-22T18:30:50;20.00;64.90